createdAt,value
2019-03-17T00:01:57.628Z,11.07
2019-03-17T00:04:31.617Z,11.04
2019-03-17T00:07:03.782Z,11.00
2019-03-17T00:09:35.478Z,10.96
2019-03-17T00:12:07.188Z,10.87
2019-03-17T00:14:38.861Z,10.82
2019-03-17T00:17:10.521Z,10.76
2019-03-17T00:19:42.387Z,10.69
2019-03-17T00:22:14.274Z,10.68
2019-03-17T00:24:45.980Z,10.64
2019-03-17T00:27:17.798Z,10.61
2019-03-17T00:29:49.638Z,10.61
2019-03-17T00:32:21.403Z,10.59
2019-03-17T00:34:56.294Z,10.62
2019-03-17T00:37:27.882Z,10.65
2019-03-17T00:39:59.355Z,10.63
2019-03-17T00:42:30.996Z,10.62
2019-03-17T00:45:11.720Z,10.61
2019-03-17T00:47:43.703Z,10.57
2019-03-17T00:50:15.580Z,10.56
2019-03-17T00:52:47.157Z,10.56
2019-03-17T00:55:21.782Z,10.56
2019-03-17T00:57:53.546Z,10.62
2019-03-17T01:00:25.309Z,10.68
2019-03-17T01:02:56.745Z,10.70
2019-03-17T01:05:34.339Z,10.70
2019-03-17T01:08:06.159Z,10.65
2019-03-17T01:10:37.908Z,10.60
2019-03-17T01:13:09.658Z,10.62
2019-03-17T01:15:41.217Z,10.62
2019-03-17T01:18:12.866Z,10.58
2019-03-17T01:20:44.571Z,10.50
2019-03-17T01:23:16.252Z,10.40
2019-03-17T01:25:47.910Z,10.37
2019-03-17T01:28:19.573Z,10.33
2019-03-17T01:30:51.198Z,10.30
2019-03-17T01:33:22.913Z,10.21
2019-03-17T01:36:02.048Z,10.01
2019-03-17T01:38:33.737Z,9.79
2019-03-17T01:41:05.391Z,9.77
2019-03-17T01:43:36.984Z,9.64
2019-03-17T01:46:11.186Z,9.53
2019-03-17T01:48:42.936Z,9.50
2019-03-17T01:51:14.946Z,9.34
2019-03-17T01:53:47.546Z,9.17
2019-03-17T01:56:25.722Z,9.08
2019-03-17T01:58:57.444Z,9.01
2019-03-17T02:01:28.960Z,8.88
2019-03-17T02:04:00.537Z,8.93
2019-03-17T02:06:38.033Z,9.18
2019-03-17T02:09:10.524Z,9.25
2019-03-17T02:11:42.135Z,9.40
2019-03-17T02:14:13.815Z,9.24
2019-03-17T02:16:48.113Z,9.07
2019-03-17T02:19:19.984Z,8.85
2019-03-17T02:21:51.754Z,8.64
2019-03-17T02:24:23.723Z,8.41
2019-03-17T02:26:58.222Z,8.24
2019-03-17T02:29:29.827Z,8.10
2019-03-17T02:32:01.990Z,8.01
2019-03-17T02:34:33.623Z,8.21
2019-03-17T02:37:05.863Z,8.25
2019-03-17T02:39:37.439Z,8.37
2019-03-17T02:42:09.752Z,8.29
2019-03-17T02:44:44.596Z,8.15
2019-03-17T02:47:19.793Z,7.98
2019-03-17T02:49:51.620Z,8.04
2019-03-17T02:52:24.138Z,8.01
2019-03-17T02:54:55.791Z,7.94
2019-03-17T02:57:31.981Z,7.95
2019-03-17T03:00:03.732Z,7.84
2019-03-17T03:02:36.040Z,7.92
2019-03-17T03:05:08.471Z,7.97
2019-03-17T03:07:40.397Z,7.84
2019-03-17T03:10:12.315Z,7.80
2019-03-17T03:12:43.812Z,7.75
2019-03-17T03:15:15.550Z,7.56
2019-03-17T03:17:47.373Z,7.59
2019-03-17T03:20:19.068Z,7.70
2019-03-17T03:22:50.849Z,7.68
2019-03-17T03:25:22.494Z,7.60
2019-03-17T03:28:01.332Z,7.53
2019-03-17T03:30:32.972Z,7.43
2019-03-17T03:33:04.686Z,7.40
2019-03-17T03:35:36.263Z,7.45
2019-03-17T03:38:11.806Z,7.44
2019-03-17T03:40:43.634Z,7.47
2019-03-17T03:43:15.370Z,7.42
2019-03-17T03:45:47.118Z,7.27
2019-03-17T03:48:18.726Z,7.02
2019-03-17T03:50:50.678Z,6.76
2019-03-17T03:53:22.583Z,6.60
2019-03-17T03:55:54.635Z,6.44
2019-03-17T03:58:29.474Z,6.27
2019-03-17T04:01:01.168Z,6.16
2019-03-17T04:03:32.752Z,6.05
2019-03-17T04:06:04.495Z,5.93
2019-03-17T04:08:43.666Z,5.84
2019-03-17T04:11:15.516Z,6.04
2019-03-17T04:13:47.216Z,6.17
2019-03-17T04:16:18.866Z,6.43
2019-03-17T04:18:53.672Z,6.63
2019-03-17T04:21:25.338Z,6.84
2019-03-17T04:23:57.138Z,6.69
2019-03-17T04:26:28.764Z,6.42
2019-03-17T04:29:06.392Z,6.46
2019-03-17T04:31:41.070Z,6.48
2019-03-17T04:34:12.550Z,6.60
2019-03-17T04:36:44.130Z,6.70
2019-03-17T04:39:15.796Z,6.60
2019-03-17T04:41:47.487Z,6.55
2019-03-17T04:44:21.156Z,6.58
2019-03-17T04:46:52.451Z,6.62
2019-03-17T04:49:23.897Z,6.72
2019-03-17T04:51:55.450Z,6.89
2019-03-17T04:54:27.356Z,7.09
2019-03-17T04:56:58.855Z,7.18
2019-03-17T04:59:36.928Z,7.26
2019-03-17T05:02:08.631Z,7.28
2019-03-17T05:04:40.225Z,7.36
2019-03-17T05:07:11.990Z,7.47
2019-03-17T05:09:43.729Z,7.49
2019-03-17T05:12:15.551Z,7.56
2019-03-17T05:14:47.353Z,7.55
2019-03-17T05:17:19.090Z,7.42
2019-03-17T05:19:57.874Z,7.35
2019-03-17T05:22:29.603Z,7.19
2019-03-17T05:25:01.170Z,7.02
2019-03-17T05:27:32.989Z,6.94
2019-03-17T05:30:05.283Z,6.94
2019-03-17T05:32:37.180Z,6.99
2019-03-17T05:35:09.031Z,7.04
2019-03-17T05:37:41.009Z,7.07
2019-03-17T05:40:19.876Z,7.10
2019-03-17T05:42:51.529Z,7.31
2019-03-17T05:45:23.226Z,7.62
2019-03-17T05:47:54.889Z,7.90
2019-03-17T05:50:33.087Z,8.04
2019-03-17T05:53:04.896Z,8.52
2019-03-17T05:55:36.917Z,8.63
2019-03-17T05:58:08.749Z,8.75
2019-03-17T06:00:40.664Z,8.87
2019-03-17T06:03:12.268Z,8.97
2019-03-17T06:05:44.138Z,9.05
2019-03-17T06:08:15.789Z,9.17
2019-03-17T06:10:56.981Z,9.11
2019-03-17T06:13:28.637Z,8.98
2019-03-17T06:16:00.390Z,8.90
2019-03-17T06:18:31.955Z,8.85
2019-03-17T06:21:03.883Z,8.78
2019-03-17T06:23:35.745Z,8.78
2019-03-17T06:26:07.986Z,8.78
2019-03-17T06:28:39.903Z,8.82
2019-03-17T06:31:11.665Z,8.96
2019-03-17T06:33:43.566Z,9.14
2019-03-17T06:36:15.240Z,9.29
2019-03-17T06:38:47.221Z,9.27
2019-03-17T06:41:24.813Z,9.45
2019-03-17T06:43:56.449Z,9.46
2019-03-17T06:46:28.342Z,9.63
2019-03-17T06:49:00.035Z,9.75
2019-03-17T06:51:36.038Z,9.62
2019-03-17T06:54:07.836Z,9.75
2019-03-17T06:56:39.749Z,9.95
2019-03-17T06:59:11.879Z,10.04
2019-03-17T07:01:43.713Z,10.16
2019-03-17T07:04:15.613Z,10.22
2019-03-17T07:06:47.280Z,10.27
2019-03-17T07:09:18.997Z,10.35
2019-03-17T07:11:56.797Z,10.42
2019-03-17T07:14:28.445Z,10.47
2019-03-17T07:17:00.170Z,10.57
2019-03-17T07:19:31.773Z,10.55
2019-03-17T07:22:11.185Z,10.62
2019-03-17T07:24:43.129Z,10.63
2019-03-17T07:27:15.221Z,10.73
2019-03-17T07:29:49.428Z,10.71
2019-03-17T07:32:20.702Z,10.78
2019-03-17T07:34:52.761Z,10.75
2019-03-17T07:37:24.829Z,10.80
2019-03-17T07:39:56.655Z,10.81
2019-03-17T07:42:28.526Z,10.80
2019-03-17T07:45:00.547Z,10.91
2019-03-17T07:47:35.555Z,11.02
2019-03-17T07:50:06.827Z,10.87
2019-03-17T07:52:42.390Z,10.76
2019-03-17T07:55:14.451Z,10.72
2019-03-17T07:57:46.980Z,10.99
2019-03-17T08:00:30.953Z,11.13
2019-03-17T08:02:52.700Z,11.36
2019-03-17T08:05:24.561Z,11.45
2019-03-17T08:08:08.202Z,11.51
2019-03-17T08:10:30.100Z,11.52
2019-03-17T08:13:02.287Z,11.48
2019-03-17T08:15:33.852Z,11.71
2019-03-17T08:18:05.795Z,12.07
2019-03-17T08:20:37.593Z,12.29
2019-03-17T08:23:12.302Z,12.46
2019-03-17T08:25:44.438Z,12.59
2019-03-17T08:28:16.223Z,12.85
2019-03-17T08:30:53.351Z,13.07
2019-03-17T08:33:22.578Z,13.17
2019-03-17T08:35:54.580Z,13.39
2019-03-17T08:38:27.172Z,13.66
2019-03-17T08:40:59.491Z,14.01
2019-03-17T08:43:31.743Z,14.04
2019-03-17T08:46:04.077Z,14.28
2019-03-17T08:48:36.225Z,13.86
2019-03-17T08:51:08.020Z,13.44
2019-03-17T08:53:43.114Z,13.31
2019-03-17T08:56:15.727Z,13.18
2019-03-17T08:58:47.469Z,13.22
2019-03-17T09:01:19.602Z,13.15
2019-03-17T09:03:51.869Z,13.41
2019-03-17T09:06:23.738Z,13.32
2019-03-17T09:08:55.543Z,13.73
2019-03-17T09:11:27.097Z,13.78
2019-03-17T09:14:05.310Z,13.63
2019-03-17T09:16:37.954Z,14.05
2019-03-17T09:19:09.821Z,14.48
2019-03-17T09:21:41.778Z,14.95
2019-03-17T09:24:17.735Z,15.44
2019-03-17T09:26:51.054Z,15.57
2019-03-17T09:29:23.673Z,15.79
2019-03-17T09:31:55.933Z,16.07
2019-03-17T09:34:46.672Z,16.73
2019-03-17T09:37:19.159Z,16.47
2019-03-17T09:39:51.004Z,16.30
2019-03-17T09:42:22.844Z,16.16
2019-03-17T09:44:55.164Z,15.83
2019-03-17T09:47:28.126Z,15.26
2019-03-17T09:50:00.056Z,15.00
2019-03-17T09:52:31.967Z,14.83
2019-03-17T09:55:04.400Z,14.35
2019-03-17T09:57:36.113Z,15.21
2019-03-17T10:00:10.285Z,15.05
2019-03-17T10:02:42.223Z,15.13
2019-03-17T10:05:14.687Z,15.24
2019-03-17T10:07:46.796Z,14.84
2019-03-17T10:10:18.910Z,14.74
2019-03-17T10:12:50.779Z,15.02
2019-03-17T10:15:23.022Z,15.22
2019-03-17T10:17:55.069Z,14.86
2019-03-17T10:20:27.511Z,14.61
2019-03-17T10:22:59.540Z,14.89
2019-03-17T10:25:31.698Z,14.05
2019-03-17T10:28:03.901Z,14.30
2019-03-17T10:30:36.260Z,14.60
2019-03-17T10:33:08.413Z,14.74
2019-03-17T10:35:41.170Z,14.83
2019-03-17T10:38:13.225Z,14.83
2019-03-17T10:40:46.599Z,14.95
2019-03-17T10:43:18.791Z,15.16
2019-03-17T10:45:54.346Z,15.02
2019-03-17T10:48:26.261Z,15.79
2019-03-17T10:50:58.034Z,16.07
2019-03-17T10:53:29.983Z,15.98
2019-03-17T10:56:03.145Z,16.06
2019-03-17T10:58:35.124Z,16.03
2019-03-17T11:01:06.826Z,15.76
2019-03-17T11:03:38.753Z,15.69
2019-03-17T11:06:10.907Z,15.89
2019-03-17T11:08:43.723Z,15.80
2019-03-17T11:11:16.128Z,14.74
2019-03-17T11:13:48.723Z,14.77
2019-03-17T11:16:21.290Z,14.52
2019-03-17T11:18:54.084Z,14.70
2019-03-17T11:21:25.957Z,14.29
2019-03-17T11:23:58.810Z,14.48
2019-03-17T11:26:31.063Z,14.92
2019-03-17T11:29:04.107Z,14.72
2019-03-17T11:31:37.517Z,15.46
2019-03-17T11:34:09.728Z,15.50
2019-03-17T11:36:42.020Z,14.82
2019-03-17T11:39:14.105Z,15.04
2019-03-17T11:41:46.427Z,15.49
2019-03-17T11:44:18.819Z,15.97
2019-03-17T11:46:51.846Z,15.09
2019-03-17T11:49:23.682Z,14.72
2019-03-17T11:51:55.711Z,15.15
2019-03-17T11:54:27.543Z,15.44
2019-03-17T11:56:59.796Z,14.93
2019-03-17T11:59:32.366Z,15.60
2019-03-17T12:02:05.073Z,14.77
2019-03-17T12:04:37.180Z,14.81
2019-03-17T12:07:09.607Z,15.23
2019-03-17T12:09:49.933Z,14.93
2019-03-17T12:12:15.976Z,15.52
2019-03-17T12:14:48.188Z,16.19
2019-03-17T12:17:20.522Z,16.52
2019-03-17T12:19:54.196Z,15.95
2019-03-17T12:22:26.169Z,15.29
2019-03-17T12:24:58.071Z,15.84
2019-03-17T12:27:30.285Z,16.74
2019-03-17T12:30:02.253Z,17.82
2019-03-17T12:32:34.659Z,16.72
2019-03-17T12:35:06.822Z,17.25
2019-03-17T12:37:39.369Z,18.44
2019-03-17T12:40:11.269Z,18.06
2019-03-17T12:42:43.678Z,17.57
2019-03-17T12:45:15.709Z,17.03
2019-03-17T12:47:52.102Z,17.90
2019-03-17T12:50:24.125Z,18.41
2019-03-17T12:52:56.007Z,18.57
2019-03-17T12:55:27.884Z,17.99
2019-03-17T12:58:04.863Z,18.71
2019-03-17T13:00:37.185Z,18.22
2019-03-17T13:03:09.427Z,17.77
2019-03-17T13:05:41.211Z,18.87
2019-03-17T13:08:13.212Z,18.05
2019-03-17T13:10:45.156Z,18.06
2019-03-17T13:13:17.162Z,16.91
2019-03-17T13:15:49.420Z,17.40
2019-03-17T13:18:21.559Z,18.42
2019-03-17T13:20:54.147Z,18.93
2019-03-17T13:23:28.156Z,19.66
2019-03-17T13:26:00.471Z,18.56
2019-03-17T13:28:32.914Z,18.45
2019-03-17T13:31:06.506Z,18.26
2019-03-17T13:33:39.452Z,18.19
2019-03-17T13:36:11.893Z,18.56
2019-03-17T13:38:44.341Z,17.90
2019-03-17T13:41:16.055Z,17.59
2019-03-17T13:43:48.009Z,16.77
2019-03-17T13:46:19.898Z,16.29
2019-03-17T13:48:51.896Z,15.89
2019-03-17T13:51:24.849Z,15.92
2019-03-17T13:53:56.565Z,15.90
2019-03-17T13:56:28.801Z,15.47
2019-03-17T13:59:00.698Z,15.99
2019-03-17T14:01:32.860Z,16.33
2019-03-17T14:04:04.891Z,15.81
2019-03-17T14:06:37.263Z,15.79
2019-03-17T14:09:09.715Z,15.89
2019-03-17T14:11:41.965Z,15.76
2019-03-17T14:14:13.865Z,16.10
2019-03-17T14:16:45.546Z,16.25
2019-03-17T14:19:17.331Z,15.66
2019-03-17T14:21:49.636Z,15.59
2019-03-17T14:24:21.492Z,15.40
2019-03-17T14:26:53.621Z,15.97
2019-03-17T14:29:25.440Z,17.09
2019-03-17T14:31:57.710Z,17.59
2019-03-17T14:34:29.576Z,17.45
2019-03-17T14:37:01.929Z,17.61
2019-03-17T14:39:33.869Z,17.42
2019-03-17T14:42:06.279Z,17.43
2019-03-17T14:44:38.470Z,16.32
2019-03-17T14:47:10.736Z,16.03
2019-03-17T14:49:43.112Z,16.23
2019-03-17T14:52:15.149Z,15.61
2019-03-17T14:54:46.999Z,16.15
2019-03-17T14:57:19.094Z,16.18
2019-03-17T14:59:50.845Z,16.14
2019-03-17T15:02:22.733Z,15.79
2019-03-17T15:04:54.623Z,15.25
2019-03-17T15:07:27.272Z,15.03
2019-03-17T15:09:59.033Z,15.14
2019-03-17T15:12:30.855Z,15.26
2019-03-17T15:15:03.220Z,15.22
2019-03-17T15:17:35.437Z,15.46
2019-03-17T15:20:09.102Z,15.42
2019-03-17T15:22:41.402Z,15.37
2019-03-17T15:25:13.367Z,14.93
2019-03-17T15:27:45.386Z,14.94
2019-03-17T15:30:22.398Z,14.91
2019-03-17T15:32:54.351Z,14.82
2019-03-17T15:35:26.297Z,14.77
2019-03-17T15:38:00.567Z,14.91
2019-03-17T15:40:32.391Z,14.71
2019-03-17T15:43:04.787Z,14.61
2019-03-17T15:45:37.149Z,14.43
2019-03-17T15:48:09.469Z,14.60
2019-03-17T15:50:41.358Z,14.71
2019-03-17T15:53:13.559Z,14.60
2019-03-17T15:55:45.779Z,14.38
2019-03-17T15:58:18.306Z,14.22
2019-03-17T16:00:50.751Z,14.15
2019-03-17T16:03:24.529Z,14.02
2019-03-17T16:06:00.860Z,14.04
2019-03-17T16:08:38.165Z,14.05
2019-03-17T16:11:14.849Z,14.02
2019-03-17T16:13:47.616Z,13.86
2019-03-17T16:16:21.284Z,13.82
2019-03-17T16:19:01.400Z,13.75
2019-03-17T16:21:37.105Z,13.71
2019-03-17T16:24:11.587Z,13.70
2019-03-17T16:26:46.397Z,13.73
2019-03-17T16:29:22.296Z,13.79
2019-03-17T16:31:57.543Z,13.75
2019-03-17T16:34:32.007Z,13.73
2019-03-17T16:37:07.940Z,13.70
2019-03-17T16:39:44.130Z,13.67
2019-03-17T16:42:22.600Z,13.69
2019-03-17T16:44:58.810Z,13.78
2019-03-17T16:47:36.106Z,13.75
2019-03-17T16:50:15.830Z,13.78
2019-03-17T16:52:51.136Z,13.73
2019-03-17T16:55:25.909Z,13.46
2019-03-17T16:58:04.500Z,13.50
2019-03-17T17:00:40.868Z,13.41
2019-03-17T17:03:20.566Z,13.42
2019-03-17T17:05:55.022Z,13.35
2019-03-17T17:08:30.592Z,13.29
2019-03-17T17:11:12.111Z,13.35
2019-03-17T17:13:49.286Z,13.33
2019-03-17T17:16:29.761Z,13.33
2019-03-17T17:19:05.736Z,13.31
2019-03-17T17:21:41.556Z,13.31
2019-03-17T17:24:18.401Z,13.33
2019-03-17T17:26:56.025Z,13.25
2019-03-17T17:29:31.834Z,13.18
2019-03-17T17:32:06.103Z,13.15
2019-03-17T17:34:44.532Z,13.17
2019-03-17T17:37:20.791Z,13.13
2019-03-17T17:39:55.696Z,13.07
2019-03-17T17:42:31.571Z,13.06
2019-03-17T17:45:09.132Z,13.11
2019-03-17T17:47:54.154Z,13.08
2019-03-17T17:50:27.217Z,13.03
2019-03-17T17:52:59.096Z,13.00
2019-03-17T17:55:31.074Z,12.98
2019-03-17T17:58:02.864Z,12.95
2019-03-17T18:00:38.975Z,12.93
2019-03-17T18:03:10.986Z,12.94
2019-03-17T18:05:43.178Z,12.94
2019-03-17T18:08:15.811Z,12.94
2019-03-17T18:10:47.705Z,12.94
2019-03-17T18:13:19.425Z,12.96
2019-03-17T18:15:51.577Z,12.91
2019-03-17T18:18:23.664Z,12.85
2019-03-17T18:20:58.564Z,12.82
2019-03-17T18:23:30.849Z,12.82
2019-03-17T18:26:03.130Z,12.79
2019-03-17T18:28:34.873Z,12.76
2019-03-17T18:31:06.873Z,12.72
2019-03-17T18:33:39.070Z,12.66
2019-03-17T18:36:11.584Z,12.62
2019-03-17T18:38:43.962Z,12.54
2019-03-17T18:41:17.130Z,12.49
2019-03-17T18:43:49.232Z,12.47
2019-03-17T18:46:21.176Z,12.46
2019-03-17T18:48:54.729Z,12.44
2019-03-17T18:51:27.365Z,12.39
2019-03-17T18:53:59.536Z,12.36
2019-03-17T18:56:32.189Z,12.42
2019-03-17T18:59:04.668Z,12.39
2019-03-17T19:01:37.088Z,12.36
2019-03-17T19:04:09.415Z,12.37
2019-03-17T19:06:41.366Z,12.34
2019-03-17T19:09:13.580Z,12.27
2019-03-17T19:11:45.620Z,12.13
2019-03-17T19:14:17.473Z,12.07
2019-03-17T19:16:49.201Z,12.13
2019-03-17T19:19:21.303Z,12.03
2019-03-17T19:21:53.259Z,11.91
2019-03-17T19:24:25.099Z,11.77
2019-03-17T19:26:57.772Z,11.72
2019-03-17T19:29:30.454Z,11.68
2019-03-17T19:32:02.411Z,11.49
2019-03-17T19:34:35.843Z,11.27
2019-03-17T19:37:07.937Z,11.29
2019-03-17T19:39:40.030Z,11.30
2019-03-17T19:42:12.197Z,11.18
2019-03-17T19:44:44.532Z,11.15
2019-03-17T19:47:16.545Z,11.08
2019-03-17T19:49:48.607Z,11.13
2019-03-17T19:52:20.775Z,11.23
2019-03-17T19:54:52.755Z,11.31
2019-03-17T19:57:24.992Z,11.27
2019-03-17T19:59:57.088Z,11.21
2019-03-17T20:02:28.862Z,11.12
2019-03-17T20:05:00.956Z,11.30
2019-03-17T20:07:32.852Z,11.36
2019-03-17T20:10:05.259Z,11.42
2019-03-17T20:12:37.083Z,11.47
2019-03-17T20:15:09.170Z,11.47
2019-03-17T20:17:41.263Z,11.42
2019-03-17T20:20:13.857Z,11.35
2019-03-17T20:22:45.703Z,11.34
2019-03-17T20:25:18.541Z,11.25
2019-03-17T20:27:50.800Z,11.17
2019-03-17T20:30:22.688Z,11.01
2019-03-17T20:32:55.180Z,10.99
2019-03-17T20:35:27.293Z,10.88
2019-03-17T20:38:00.533Z,10.94
2019-03-17T20:40:33.000Z,10.80
2019-03-17T20:43:18.674Z,10.77
2019-03-17T20:45:40.592Z,10.70
2019-03-17T20:48:13.825Z,10.67
2019-03-17T20:50:46.542Z,10.61
2019-03-17T20:53:19.892Z,10.62
2019-03-17T20:55:52.637Z,10.70
2019-03-17T20:58:26.047Z,10.60
2019-03-17T21:00:58.041Z,10.69
2019-03-17T21:03:31.896Z,10.67
2019-03-17T21:06:05.741Z,10.72
2019-03-17T21:08:39.130Z,10.72
2019-03-17T21:11:17.528Z,10.75
2019-03-17T21:13:51.411Z,10.71
2019-03-17T21:16:24.986Z,10.73
2019-03-17T21:18:58.147Z,10.77
2019-03-17T21:21:31.762Z,10.73
2019-03-17T21:24:03.835Z,10.73
2019-03-17T21:26:35.985Z,10.85
2019-03-17T21:29:08.744Z,10.95
2019-03-17T21:31:43.248Z,11.02
2019-03-17T21:34:16.201Z,11.02
2019-03-17T21:36:49.182Z,11.04
2019-03-17T21:39:22.221Z,11.13
2019-03-17T21:41:54.380Z,11.12
2019-03-17T21:44:27.582Z,11.19
2019-03-17T21:46:59.572Z,11.23
2019-03-17T21:49:32.691Z,11.20
2019-03-17T21:52:05.281Z,11.17
2019-03-17T21:54:38.816Z,11.11
2019-03-17T21:57:13.604Z,11.10
2019-03-17T21:59:46.687Z,11.10
2019-03-17T22:02:19.166Z,11.21
2019-03-17T22:04:52.481Z,11.19
2019-03-17T22:07:25.494Z,11.16
2019-03-17T22:09:58.639Z,11.21
2019-03-17T22:12:32.535Z,11.27
2019-03-17T22:15:05.114Z,11.30
2019-03-17T22:17:37.853Z,11.39
2019-03-17T22:20:12.604Z,11.34
2019-03-17T22:22:44.804Z,11.40
2019-03-17T22:25:17.481Z,11.32
2019-03-17T22:27:49.397Z,11.43
2019-03-17T22:30:21.998Z,11.33
2019-03-17T22:32:54.352Z,11.38
2019-03-17T22:35:26.548Z,11.42
2019-03-17T22:37:58.317Z,11.45
2019-03-17T22:40:30.173Z,11.46
2019-03-17T22:43:02.078Z,11.39
2019-03-17T22:45:34.094Z,11.39
2019-03-17T22:48:05.986Z,11.38
2019-03-17T22:50:38.066Z,11.25
2019-03-17T22:53:09.831Z,11.18
2019-03-17T22:55:41.739Z,11.17
2019-03-17T22:58:13.645Z,11.25
2019-03-17T23:00:46.366Z,11.16
2019-03-17T23:03:18.132Z,10.99
2019-03-17T23:05:50.021Z,10.94
2019-03-17T23:08:21.808Z,10.87
2019-03-17T23:10:53.507Z,10.89
2019-03-17T23:13:25.486Z,10.96
2019-03-17T23:15:57.529Z,11.00
2019-03-17T23:18:29.434Z,11.01
2019-03-17T23:21:01.309Z,11.06
2019-03-17T23:23:33.071Z,11.17
2019-03-17T23:26:04.690Z,11.14
2019-03-17T23:28:36.478Z,11.13
2019-03-17T23:31:08.129Z,11.28
2019-03-17T23:33:40.030Z,11.47
2019-03-17T23:36:11.869Z,11.41
2019-03-17T23:38:43.502Z,11.43
2019-03-17T23:41:15.049Z,11.43
2019-03-17T23:43:46.706Z,11.36
2019-03-17T23:46:18.548Z,11.25
2019-03-17T23:48:50.495Z,11.22
2019-03-17T23:51:22.302Z,11.23
2019-03-17T23:53:54.462Z,11.25
2019-03-17T23:56:26.096Z,11.26
2019-03-17T23:58:57.940Z,11.29
